sensor_id;sensor_type;location;lat;lon;timestamp;P1;durP1;ratioP1;P2;durP2;ratioP2
1382;SDS011;685;47.196;11.880;2022-07-29T00:00:26;2.87;;;1.30;;
1382;SDS011;685;47.196;11.880;2022-07-29T00:02:53;4.00;;;1.83;;
1382;SDS011;685;47.196;11.880;2022-07-29T00:05:20;2.10;;;1.37;;
1382;SDS011;685;47.196;11.880;2022-07-29T00:07:49;3.27;;;1.60;;
1382;SDS011;685;47.196;11.880;2022-07-29T00:10:16;1.90;;;1.60;;
1382;SDS011;685;47.196;11.880;2022-07-29T00:12:43;2.50;;;1.40;;
1382;SDS011;685;47.196;11.880;2022-07-29T00:15:10;4.23;;;1.90;;
1382;SDS011;685;47.196;11.880;2022-07-29T00:17:37;2.23;;;1.57;;
1382;SDS011;685;47.196;11.880;2022-07-29T00:20:04;3.10;;;1.63;;
1382;SDS011;685;47.196;11.880;2022-07-29T00:22:32;1.90;;;1.43;;
1382;SDS011;685;47.196;11.880;2022-07-29T00:25:04;3.63;;;1.63;;
1382;SDS011;685;47.196;11.880;2022-07-29T00:27:32;1.60;;;1.20;;
1382;SDS011;685;47.196;11.880;2022-07-29T00:30:00;3.17;;;1.30;;
1382;SDS011;685;47.196;11.880;2022-07-29T00:32:27;1.93;;;1.40;;
1382;SDS011;685;47.196;11.880;2022-07-29T00:34:54;2.20;;;1.50;;
1382;SDS011;685;47.196;11.880;2022-07-29T00:37:38;2.40;;;1.90;;
1382;SDS011;685;47.196;11.880;2022-07-29T00:40:07;3.63;;;1.80;;
1382;SDS011;685;47.196;11.880;2022-07-29T00:42:41;2.90;;;1.90;;
1382;SDS011;685;47.196;11.880;2022-07-29T00:45:09;2.73;;;1.63;;
1382;SDS011;685;47.196;11.880;2022-07-29T00:47:36;2.77;;;1.60;;
1382;SDS011;685;47.196;11.880;2022-07-29T00:50:03;2.53;;;1.37;;
1382;SDS011;685;47.196;11.880;2022-07-29T00:52:31;2.00;;;1.50;;
1382;SDS011;685;47.196;11.880;2022-07-29T00:54:59;2.30;;;1.80;;
1382;SDS011;685;47.196;11.880;2022-07-29T00:57:27;2.27;;;1.40;;
1382;SDS011;685;47.196;11.880;2022-07-29T00:59:54;4.23;;;1.50;;
1382;SDS011;685;47.196;11.880;2022-07-29T01:02:22;2.13;;;1.30;;
1382;SDS011;685;47.196;11.880;2022-07-29T01:04:48;2.53;;;1.60;;
1382;SDS011;685;47.196;11.880;2022-07-29T01:07:16;2.27;;;1.63;;
1382;SDS011;685;47.196;11.880;2022-07-29T01:09:44;2.40;;;1.40;;
1382;SDS011;685;47.196;11.880;2022-07-29T01:12:13;2.23;;;1.30;;
1382;SDS011;685;47.196;11.880;2022-07-29T01:14:45;2.80;;;1.93;;
1382;SDS011;685;47.196;11.880;2022-07-29T01:17:14;2.40;;;1.50;;
1382;SDS011;685;47.196;11.880;2022-07-29T01:19:49;2.27;;;1.40;;
1382;SDS011;685;47.196;11.880;2022-07-29T01:22:25;4.03;;;2.07;;
1382;SDS011;685;47.196;11.880;2022-07-29T01:25:19;2.70;;;1.77;;
1382;SDS011;685;47.196;11.880;2022-07-29T01:28:03;3.17;;;2.03;;
1382;SDS011;685;47.196;11.880;2022-07-29T01:30:44;2.50;;;1.70;;
1382;SDS011;685;47.196;11.880;2022-07-29T01:33:15;3.47;;;2.00;;
1382;SDS011;685;47.196;11.880;2022-07-29T01:36:00;2.80;;;1.93;;
1382;SDS011;685;47.196;11.880;2022-07-29T01:38:33;2.73;;;1.50;;
1382;SDS011;685;47.196;11.880;2022-07-29T01:41:02;2.93;;;1.60;;
1382;SDS011;685;47.196;11.880;2022-07-29T01:43:36;3.70;;;1.67;;
1382;SDS011;685;47.196;11.880;2022-07-29T01:46:11;3.03;;;1.50;;
1382;SDS011;685;47.196;11.880;2022-07-29T01:48:45;2.50;;;1.60;;
1382;SDS011;685;47.196;11.880;2022-07-29T01:51:14;3.40;;;1.70;;
1382;SDS011;685;47.196;11.880;2022-07-29T01:53:46;4.30;;;2.50;;
1382;SDS011;685;47.196;11.880;2022-07-29T01:56:18;2.13;;;1.63;;
1382;SDS011;685;47.196;11.880;2022-07-29T01:58:48;2.60;;;1.83;;
1382;SDS011;685;47.196;11.880;2022-07-29T02:01:19;4.43;;;1.90;;
1382;SDS011;685;47.196;11.880;2022-07-29T02:03:48;5.03;;;1.77;;
1382;SDS011;685;47.196;11.880;2022-07-29T02:06:17;2.20;;;1.70;;
1382;SDS011;685;47.196;11.880;2022-07-29T02:08:47;2.40;;;1.30;;
1382;SDS011;685;47.196;11.880;2022-07-29T02:11:16;2.90;;;1.67;;
1382;SDS011;685;47.196;11.880;2022-07-29T02:13:43;4.40;;;2.00;;
1382;SDS011;685;47.196;11.880;2022-07-29T02:16:12;2.60;;;2.10;;
1382;SDS011;685;47.196;11.880;2022-07-29T02:18:43;2.00;;;1.77;;
1382;SDS011;685;47.196;11.880;2022-07-29T02:21:14;3.30;;;1.83;;
1382;SDS011;685;47.196;11.880;2022-07-29T02:23:47;2.03;;;1.40;;
1382;SDS011;685;47.196;11.880;2022-07-29T02:26:16;2.53;;;1.60;;
1382;SDS011;685;47.196;11.880;2022-07-29T02:28:45;2.13;;;1.40;;
1382;SDS011;685;47.196;11.880;2022-07-29T02:31:13;2.20;;;1.43;;
1382;SDS011;685;47.196;11.880;2022-07-29T02:33:44;2.60;;;1.87;;
1382;SDS011;685;47.196;11.880;2022-07-29T02:36:13;2.63;;;1.83;;
1382;SDS011;685;47.196;11.880;2022-07-29T02:38:42;2.90;;;1.87;;
1382;SDS011;685;47.196;11.880;2022-07-29T02:41:23;5.73;;;2.40;;
1382;SDS011;685;47.196;11.880;2022-07-29T02:43:55;3.30;;;1.60;;
1382;SDS011;685;47.196;11.880;2022-07-29T02:46:26;2.47;;;1.63;;
1382;SDS011;685;47.196;11.880;2022-07-29T02:49:01;2.43;;;1.70;;
1382;SDS011;685;47.196;11.880;2022-07-29T02:51:34;2.67;;;1.80;;
1382;SDS011;685;47.196;11.880;2022-07-29T02:54:08;2.50;;;1.80;;
1382;SDS011;685;47.196;11.880;2022-07-29T02:56:40;2.50;;;2.30;;
1382;SDS011;685;47.196;11.880;2022-07-29T02:59:10;2.03;;;1.47;;
1382;SDS011;685;47.196;11.880;2022-07-29T03:01:40;2.10;;;1.70;;
1382;SDS011;685;47.196;11.880;2022-07-29T03:04:11;2.80;;;1.80;;
1382;SDS011;685;47.196;11.880;2022-07-29T03:06:40;2.30;;;1.70;;
1382;SDS011;685;47.196;11.880;2022-07-29T03:09:10;3.53;;;2.20;;
1382;SDS011;685;47.196;11.880;2022-07-29T03:11:38;3.03;;;2.00;;
1382;SDS011;685;47.196;11.880;2022-07-29T03:14:05;2.63;;;1.90;;
1382;SDS011;685;47.196;11.880;2022-07-29T03:16:33;3.57;;;2.03;;
1382;SDS011;685;47.196;11.880;2022-07-29T03:19:02;3.43;;;1.80;;
1382;SDS011;685;47.196;11.880;2022-07-29T03:21:31;2.63;;;2.00;;
1382;SDS011;685;47.196;11.880;2022-07-29T03:23:59;3.83;;;2.43;;
1382;SDS011;685;47.196;11.880;2022-07-29T03:26:26;2.93;;;1.90;;
1382;SDS011;685;47.196;11.880;2022-07-29T03:28:54;5.03;;;2.00;;
1382;SDS011;685;47.196;11.880;2022-07-29T03:31:21;3.77;;;2.20;;
1382;SDS011;685;47.196;11.880;2022-07-29T03:33:48;2.67;;;2.10;;
1382;SDS011;685;47.196;11.880;2022-07-29T03:36:15;6.33;;;2.20;;
1382;SDS011;685;47.196;11.880;2022-07-29T03:38:44;4.83;;;2.30;;
1382;SDS011;685;47.196;11.880;2022-07-29T03:41:13;5.53;;;2.00;;
1382;SDS011;685;47.196;11.880;2022-07-29T03:43:40;3.47;;;2.03;;
1382;SDS011;685;47.196;11.880;2022-07-29T03:46:09;4.90;;;2.33;;
1382;SDS011;685;47.196;11.880;2022-07-29T03:48:39;4.90;;;1.70;;
1382;SDS011;685;47.196;11.880;2022-07-29T03:51:12;2.63;;;2.10;;
1382;SDS011;685;47.196;11.880;2022-07-29T03:53:40;3.43;;;2.23;;
1382;SDS011;685;47.196;11.880;2022-07-29T03:56:08;2.27;;;1.90;;
1382;SDS011;685;47.196;11.880;2022-07-29T03:58:41;4.07;;;2.10;;
1382;SDS011;685;47.196;11.880;2022-07-29T04:01:09;2.03;;;1.80;;
1382;SDS011;685;47.196;11.880;2022-07-29T04:03:37;3.00;;;1.70;;
1382;SDS011;685;47.196;11.880;2022-07-29T04:06:06;2.57;;;1.47;;
1382;SDS011;685;47.196;11.880;2022-07-29T04:08:33;2.57;;;1.97;;
1382;SDS011;685;47.196;11.880;2022-07-29T04:11:00;2.43;;;1.73;;
1382;SDS011;685;47.196;11.880;2022-07-29T04:13:29;3.00;;;2.10;;
1382;SDS011;685;47.196;11.880;2022-07-29T04:15:56;2.90;;;1.70;;
1382;SDS011;685;47.196;11.880;2022-07-29T04:18:23;3.00;;;2.00;;
1382;SDS011;685;47.196;11.880;2022-07-29T04:20:50;2.30;;;1.80;;
1382;SDS011;685;47.196;11.880;2022-07-29T04:23:18;2.33;;;1.40;;
1382;SDS011;685;47.196;11.880;2022-07-29T04:25:45;4.50;;;1.87;;
1382;SDS011;685;47.196;11.880;2022-07-29T04:28:12;3.83;;;1.80;;
1382;SDS011;685;47.196;11.880;2022-07-29T04:30:40;2.40;;;1.63;;
1382;SDS011;685;47.196;11.880;2022-07-29T04:33:07;2.50;;;1.77;;
1382;SDS011;685;47.196;11.880;2022-07-29T04:35:35;3.00;;;1.90;;
1382;SDS011;685;47.196;11.880;2022-07-29T04:38:03;2.80;;;1.83;;
1382;SDS011;685;47.196;11.880;2022-07-29T04:40:31;4.17;;;1.80;;
1382;SDS011;685;47.196;11.880;2022-07-29T04:42:59;3.17;;;1.97;;
1382;SDS011;685;47.196;11.880;2022-07-29T04:45:26;1.93;;;1.50;;
1382;SDS011;685;47.196;11.880;2022-07-29T04:47:55;10.03;;;2.00;;
1382;SDS011;685;47.196;11.880;2022-07-29T04:50:22;2.90;;;1.70;;
1382;SDS011;685;47.196;11.880;2022-07-29T04:52:49;3.50;;;1.97;;
1382;SDS011;685;47.196;11.880;2022-07-29T04:55:16;3.63;;;1.87;;
1382;SDS011;685;47.196;11.880;2022-07-29T04:57:43;2.40;;;1.93;;
1382;SDS011;685;47.196;11.880;2022-07-29T05:00:10;3.13;;;1.43;;
1382;SDS011;685;47.196;11.880;2022-07-29T05:02:38;3.60;;;1.90;;
1382;SDS011;685;47.196;11.880;2022-07-29T05:05:07;2.10;;;1.57;;
1382;SDS011;685;47.196;11.880;2022-07-29T05:07:34;2.27;;;1.73;;
1382;SDS011;685;47.196;11.880;2022-07-29T05:10:02;3.60;;;2.43;;
1382;SDS011;685;47.196;11.880;2022-07-29T05:12:29;2.57;;;1.80;;
1382;SDS011;685;47.196;11.880;2022-07-29T05:14:56;7.80;;;2.20;;
1382;SDS011;685;47.196;11.880;2022-07-29T05:17:23;2.90;;;2.20;;
1382;SDS011;685;47.196;11.880;2022-07-29T05:19:50;5.13;;;2.27;;
1382;SDS011;685;47.196;11.880;2022-07-29T05:22:19;7.53;;;2.90;;
1382;SDS011;685;47.196;11.880;2022-07-29T05:24:47;2.40;;;1.80;;
1382;SDS011;685;47.196;11.880;2022-07-29T05:27:14;4.47;;;2.43;;
1382;SDS011;685;47.196;11.880;2022-07-29T05:29:41;2.20;;;1.67;;
1382;SDS011;685;47.196;11.880;2022-07-29T05:32:08;4.30;;;1.83;;
1382;SDS011;685;47.196;11.880;2022-07-29T05:34:35;3.17;;;2.57;;
1382;SDS011;685;47.196;11.880;2022-07-29T05:37:02;2.43;;;2.23;;
1382;SDS011;685;47.196;11.880;2022-07-29T05:39:30;2.53;;;1.90;;
1382;SDS011;685;47.196;11.880;2022-07-29T05:41:57;2.57;;;2.03;;
1382;SDS011;685;47.196;11.880;2022-07-29T05:44:24;3.17;;;2.40;;
1382;SDS011;685;47.196;11.880;2022-07-29T05:46:52;3.57;;;2.40;;
1382;SDS011;685;47.196;11.880;2022-07-29T05:49:19;2.40;;;1.90;;
1382;SDS011;685;47.196;11.880;2022-07-29T05:51:46;3.47;;;2.13;;
1382;SDS011;685;47.196;11.880;2022-07-29T05:54:14;3.80;;;3.00;;
1382;SDS011;685;47.196;11.880;2022-07-29T05:56:42;2.63;;;2.43;;
1382;SDS011;685;47.196;11.880;2022-07-29T05:59:09;4.30;;;2.73;;
1382;SDS011;685;47.196;11.880;2022-07-29T06:01:36;3.03;;;2.73;;
1382;SDS011;685;47.196;11.880;2022-07-29T06:04:04;2.57;;;2.17;;
1382;SDS011;685;47.196;11.880;2022-07-29T06:06:32;5.00;;;2.77;;
1382;SDS011;685;47.196;11.880;2022-07-29T06:08:59;3.03;;;2.73;;
1382;SDS011;685;47.196;11.880;2022-07-29T06:11:26;4.47;;;2.83;;
1382;SDS011;685;47.196;11.880;2022-07-29T06:13:55;3.57;;;2.23;;
1382;SDS011;685;47.196;11.880;2022-07-29T06:16:22;4.77;;;2.80;;
1382;SDS011;685;47.196;11.880;2022-07-29T06:18:49;3.30;;;2.23;;
1382;SDS011;685;47.196;11.880;2022-07-29T06:21:16;4.73;;;2.80;;
1382;SDS011;685;47.196;11.880;2022-07-29T06:23:43;3.60;;;2.30;;
1382;SDS011;685;47.196;11.880;2022-07-29T06:26:11;3.53;;;2.63;;
1382;SDS011;685;47.196;11.880;2022-07-29T06:28:38;2.83;;;2.07;;
1382;SDS011;685;47.196;11.880;2022-07-29T06:31:06;4.00;;;2.17;;
1382;SDS011;685;47.196;11.880;2022-07-29T06:33:34;2.83;;;1.93;;
1382;SDS011;685;47.196;11.880;2022-07-29T06:36:03;2.80;;;2.30;;
1382;SDS011;685;47.196;11.880;2022-07-29T06:38:30;3.27;;;2.80;;
1382;SDS011;685;47.196;11.880;2022-07-29T06:40:58;2.93;;;2.53;;
1382;SDS011;685;47.196;11.880;2022-07-29T06:43:29;2.70;;;2.37;;
1382;SDS011;685;47.196;11.880;2022-07-29T06:46:01;3.23;;;2.33;;
1382;SDS011;685;47.196;11.880;2022-07-29T06:48:31;3.27;;;1.93;;
1382;SDS011;685;47.196;11.880;2022-07-29T06:50:59;2.80;;;2.37;;
1382;SDS011;685;47.196;11.880;2022-07-29T06:53:27;2.43;;;2.13;;
1382;SDS011;685;47.196;11.880;2022-07-29T06:55:54;2.40;;;2.10;;
1382;SDS011;685;47.196;11.880;2022-07-29T06:58:23;4.23;;;2.03;;
1382;SDS011;685;47.196;11.880;2022-07-29T07:00:50;3.00;;;2.53;;
1382;SDS011;685;47.196;11.880;2022-07-29T07:03:17;3.23;;;2.67;;
1382;SDS011;685;47.196;11.880;2022-07-29T07:05:46;5.27;;;2.90;;
1382;SDS011;685;47.196;11.880;2022-07-29T07:08:14;3.63;;;2.83;;
1382;SDS011;685;47.196;11.880;2022-07-29T07:10:42;3.27;;;2.50;;
1382;SDS011;685;47.196;11.880;2022-07-29T07:13:09;3.73;;;2.53;;
1382;SDS011;685;47.196;11.880;2022-07-29T07:15:36;3.50;;;3.00;;
1382;SDS011;685;47.196;11.880;2022-07-29T07:18:03;4.67;;;2.17;;
1382;SDS011;685;47.196;11.880;2022-07-29T07:20:31;5.00;;;2.60;;
1382;SDS011;685;47.196;11.880;2022-07-29T07:23:00;5.37;;;3.27;;
1382;SDS011;685;47.196;11.880;2022-07-29T07:25:27;3.07;;;2.37;;
1382;SDS011;685;47.196;11.880;2022-07-29T07:27:54;2.90;;;2.40;;
1382;SDS011;685;47.196;11.880;2022-07-29T07:30:22;4.87;;;2.50;;
1382;SDS011;685;47.196;11.880;2022-07-29T07:32:49;2.90;;;2.47;;
1382;SDS011;685;47.196;11.880;2022-07-29T07:35:16;3.10;;;2.70;;
1382;SDS011;685;47.196;11.880;2022-07-29T07:37:43;4.90;;;2.40;;
1382;SDS011;685;47.196;11.880;2022-07-29T07:40:12;3.37;;;2.30;;
1382;SDS011;685;47.196;11.880;2022-07-29T07:42:39;2.80;;;2.50;;
1382;SDS011;685;47.196;11.880;2022-07-29T07:45:07;3.93;;;2.20;;
1382;SDS011;685;47.196;11.880;2022-07-29T07:47:35;5.63;;;2.83;;
1382;SDS011;685;47.196;11.880;2022-07-29T07:50:03;5.13;;;2.70;;
1382;SDS011;685;47.196;11.880;2022-07-29T07:52:31;2.50;;;2.30;;
1382;SDS011;685;47.196;11.880;2022-07-29T07:54:58;3.63;;;2.43;;
1382;SDS011;685;47.196;11.880;2022-07-29T07:57:27;2.30;;;2.10;;
1382;SDS011;685;47.196;11.880;2022-07-29T07:59:54;3.10;;;2.50;;
1382;SDS011;685;47.196;11.880;2022-07-29T08:02:21;3.10;;;2.43;;
1382;SDS011;685;47.196;11.880;2022-07-29T08:04:48;2.73;;;2.43;;
1382;SDS011;685;47.196;11.880;2022-07-29T08:07:15;3.07;;;2.40;;
1382;SDS011;685;47.196;11.880;2022-07-29T08:09:42;2.60;;;2.30;;
1382;SDS011;685;47.196;11.880;2022-07-29T08:12:09;4.10;;;2.90;;
1382;SDS011;685;47.196;11.880;2022-07-29T08:14:37;3.50;;;2.40;;
1382;SDS011;685;47.196;11.880;2022-07-29T08:17:04;5.70;;;4.83;;
1382;SDS011;685;47.196;11.880;2022-07-29T08:19:31;3.80;;;3.13;;
1382;SDS011;685;47.196;11.880;2022-07-29T08:21:58;3.40;;;3.10;;
1382;SDS011;685;47.196;11.880;2022-07-29T08:24:25;4.33;;;3.73;;
1382;SDS011;685;47.196;11.880;2022-07-29T08:27:17;5.10;;;4.20;;
1382;SDS011;685;47.196;11.880;2022-07-29T08:29:46;5.20;;;3.90;;
1382;SDS011;685;47.196;11.880;2022-07-29T08:32:13;6.70;;;5.77;;
1382;SDS011;685;47.196;11.880;2022-07-29T08:34:41;8.57;;;5.60;;
1382;SDS011;685;47.196;11.880;2022-07-29T08:37:09;3.13;;;2.20;;
1382;SDS011;685;47.196;11.880;2022-07-29T08:39:36;3.90;;;2.73;;
1382;SDS011;685;47.196;11.880;2022-07-29T08:42:03;3.60;;;3.20;;
1382;SDS011;685;47.196;11.880;2022-07-29T08:44:31;3.83;;;3.53;;
1382;SDS011;685;47.196;11.880;2022-07-29T08:47:01;3.33;;;3.00;;
1382;SDS011;685;47.196;11.880;2022-07-29T08:49:29;2.73;;;2.17;;
1382;SDS011;685;47.196;11.880;2022-07-29T08:51:57;4.00;;;2.97;;
1382;SDS011;685;47.196;11.880;2022-07-29T08:54:25;3.03;;;2.70;;
1382;SDS011;685;47.196;11.880;2022-07-29T08:56:54;2.97;;;2.67;;
1382;SDS011;685;47.196;11.880;2022-07-29T08:59:22;2.53;;;2.27;;
1382;SDS011;685;47.196;11.880;2022-07-29T09:01:52;4.57;;;2.67;;
1382;SDS011;685;47.196;11.880;2022-07-29T09:04:21;2.87;;;2.50;;
1382;SDS011;685;47.196;11.880;2022-07-29T09:06:53;3.70;;;2.73;;
1382;SDS011;685;47.196;11.880;2022-07-29T09:09:22;3.10;;;2.80;;
1382;SDS011;685;47.196;11.880;2022-07-29T09:11:49;2.60;;;2.23;;
1382;SDS011;685;47.196;11.880;2022-07-29T09:14:18;3.83;;;3.47;;
1382;SDS011;685;47.196;11.880;2022-07-29T09:16:46;3.20;;;2.60;;
1382;SDS011;685;47.196;11.880;2022-07-29T09:19:23;4.23;;;3.20;;
1382;SDS011;685;47.196;11.880;2022-07-29T09:21:51;2.80;;;2.10;;
1382;SDS011;685;47.196;11.880;2022-07-29T09:24:38;2.60;;;2.10;;
1382;SDS011;685;47.196;11.880;2022-07-29T09:27:11;2.23;;;2.03;;
1382;SDS011;685;47.196;11.880;2022-07-29T09:29:55;2.70;;;2.47;;
1382;SDS011;685;47.196;11.880;2022-07-29T09:32:24;2.67;;;2.10;;
1382;SDS011;685;47.196;11.880;2022-07-29T09:34:52;2.30;;;2.10;;
1382;SDS011;685;47.196;11.880;2022-07-29T09:37:40;2.70;;;1.83;;
1382;SDS011;685;47.196;11.880;2022-07-29T09:40:11;2.53;;;2.03;;
1382;SDS011;685;47.196;11.880;2022-07-29T09:42:40;3.30;;;2.33;;
1382;SDS011;685;47.196;11.880;2022-07-29T09:45:07;2.80;;;2.10;;
1382;SDS011;685;47.196;11.880;2022-07-29T09:47:41;4.80;;;2.43;;
1382;SDS011;685;47.196;11.880;2022-07-29T09:50:15;2.50;;;2.30;;
1382;SDS011;685;47.196;11.880;2022-07-29T09:52:45;3.10;;;2.60;;
1382;SDS011;685;47.196;11.880;2022-07-29T09:55:13;2.80;;;2.60;;
1382;SDS011;685;47.196;11.880;2022-07-29T09:57:40;3.80;;;2.40;;
1382;SDS011;685;47.196;11.880;2022-07-29T10:00:08;3.23;;;2.47;;
1382;SDS011;685;47.196;11.880;2022-07-29T10:02:37;3.27;;;2.50;;
1382;SDS011;685;47.196;11.880;2022-07-29T10:05:09;2.40;;;2.17;;
1382;SDS011;685;47.196;11.880;2022-07-29T10:07:45;4.10;;;2.20;;
1382;SDS011;685;47.196;11.880;2022-07-29T10:10:18;1.90;;;1.70;;
1382;SDS011;685;47.196;11.880;2022-07-29T10:12:51;2.80;;;2.60;;
1382;SDS011;685;47.196;11.880;2022-07-29T10:15:21;3.00;;;2.00;;
1382;SDS011;685;47.196;11.880;2022-07-29T10:17:49;2.70;;;2.10;;
1382;SDS011;685;47.196;11.880;2022-07-29T10:20:18;2.73;;;2.20;;
1382;SDS011;685;47.196;11.880;2022-07-29T10:22:46;3.17;;;1.90;;
1382;SDS011;685;47.196;11.880;2022-07-29T10:25:14;2.10;;;1.87;;
1382;SDS011;685;47.196;11.880;2022-07-29T10:27:41;6.00;;;2.47;;
1382;SDS011;685;47.196;11.880;2022-07-29T10:30:09;3.80;;;2.20;;
1382;SDS011;685;47.196;11.880;2022-07-29T10:32:44;2.67;;;2.37;;
1382;SDS011;685;47.196;11.880;2022-07-29T10:38:15;2.43;;;1.90;;
1382;SDS011;685;47.196;11.880;2022-07-29T10:40:57;2.90;;;2.47;;
1382;SDS011;685;47.196;11.880;2022-07-29T10:43:55;3.20;;;2.10;;
1382;SDS011;685;47.196;11.880;2022-07-29T10:46:25;2.60;;;2.10;;
1382;SDS011;685;47.196;11.880;2022-07-29T10:49:10;4.30;;;2.40;;
1382;SDS011;685;47.196;11.880;2022-07-29T10:51:52;2.80;;;2.40;;
1382;SDS011;685;47.196;11.880;2022-07-29T10:54:37;2.50;;;2.23;;
1382;SDS011;685;47.196;11.880;2022-07-29T10:57:13;2.60;;;2.27;;
1382;SDS011;685;47.196;11.880;2022-07-29T10:59:44;2.37;;;2.07;;
1382;SDS011;685;47.196;11.880;2022-07-29T11:05:16;4.23;;;1.97;;
1382;SDS011;685;47.196;11.880;2022-07-29T11:10:46;3.00;;;1.90;;
1382;SDS011;685;47.196;11.880;2022-07-29T11:16:12;3.13;;;2.57;;
1382;SDS011;685;47.196;11.880;2022-07-29T11:21:40;2.67;;;2.20;;
1382;SDS011;685;47.196;11.880;2022-07-29T11:24:12;3.10;;;2.50;;
1382;SDS011;685;47.196;11.880;2022-07-29T11:26:40;3.03;;;2.30;;
1382;SDS011;685;47.196;11.880;2022-07-29T11:29:14;2.10;;;1.90;;
1382;SDS011;685;47.196;11.880;2022-07-29T11:31:45;2.73;;;1.70;;
1382;SDS011;685;47.196;11.880;2022-07-29T11:34:26;3.40;;;1.80;;
1382;SDS011;685;47.196;11.880;2022-07-29T11:39:44;2.47;;;2.20;;
1382;SDS011;685;47.196;11.880;2022-07-29T11:45:09;3.60;;;1.90;;
1382;SDS011;685;47.196;11.880;2022-07-29T11:47:39;2.27;;;1.97;;
1382;SDS011;685;47.196;11.880;2022-07-29T11:50:08;2.20;;;1.50;;
1382;SDS011;685;47.196;11.880;2022-07-29T11:52:38;2.33;;;1.97;;
1382;SDS011;685;47.196;11.880;2022-07-29T11:55:12;4.30;;;1.97;;
1382;SDS011;685;47.196;11.880;2022-07-29T11:57:46;3.10;;;1.83;;
1382;SDS011;685;47.196;11.880;2022-07-29T12:00:21;2.00;;;1.80;;
1382;SDS011;685;47.196;11.880;2022-07-29T12:02:59;2.13;;;1.93;;
1382;SDS011;685;47.196;11.880;2022-07-29T12:05:35;2.87;;;2.40;;
1382;SDS011;685;47.196;11.880;2022-07-29T12:08:04;2.20;;;1.93;;
1382;SDS011;685;47.196;11.880;2022-07-29T12:10:34;2.50;;;2.20;;
1382;SDS011;685;47.196;11.880;2022-07-29T12:13:01;2.70;;;2.00;;
1382;SDS011;685;47.196;11.880;2022-07-29T12:15:28;3.00;;;2.37;;
1382;SDS011;685;47.196;11.880;2022-07-29T12:17:55;2.60;;;2.40;;
1382;SDS011;685;47.196;11.880;2022-07-29T12:20:23;2.60;;;2.40;;
1382;SDS011;685;47.196;11.880;2022-07-29T12:22:51;2.93;;;1.87;;
1382;SDS011;685;47.196;11.880;2022-07-29T12:25:20;4.83;;;2.00;;
1382;SDS011;685;47.196;11.880;2022-07-29T12:27:49;2.07;;;1.60;;
1382;SDS011;685;47.196;11.880;2022-07-29T12:30:34;2.67;;;2.00;;
1382;SDS011;685;47.196;11.880;2022-07-29T12:33:10;2.53;;;1.80;;
1382;SDS011;685;47.196;11.880;2022-07-29T12:35:48;2.90;;;2.10;;
1382;SDS011;685;47.196;11.880;2022-07-29T12:38:18;2.90;;;2.43;;
1382;SDS011;685;47.196;11.880;2022-07-29T12:40:46;2.40;;;2.00;;
1382;SDS011;685;47.196;11.880;2022-07-29T12:43:15;2.70;;;2.47;;
1382;SDS011;685;47.196;11.880;2022-07-29T12:45:44;3.07;;;2.63;;
1382;SDS011;685;47.196;11.880;2022-07-29T12:48:13;2.33;;;1.97;;
1382;SDS011;685;47.196;11.880;2022-07-29T12:50:53;2.23;;;1.83;;
1382;SDS011;685;47.196;11.880;2022-07-29T12:53:22;3.03;;;2.50;;
1382;SDS011;685;47.196;11.880;2022-07-29T12:55:50;2.00;;;1.80;;
1382;SDS011;685;47.196;11.880;2022-07-29T12:58:29;2.73;;;2.47;;
1382;SDS011;685;47.196;11.880;2022-07-29T13:01:05;2.50;;;2.23;;
1382;SDS011;685;47.196;11.880;2022-07-29T13:03:45;3.10;;;2.80;;
1382;SDS011;685;47.196;11.880;2022-07-29T13:06:28;2.70;;;2.50;;
1382;SDS011;685;47.196;11.880;2022-07-29T13:09:07;2.17;;;1.97;;
1382;SDS011;685;47.196;11.880;2022-07-29T13:11:37;3.57;;;2.27;;
1382;SDS011;685;47.196;11.880;2022-07-29T13:14:07;2.60;;;2.33;;
1382;SDS011;685;47.196;11.880;2022-07-29T13:16:36;2.77;;;2.43;;
1382;SDS011;685;47.196;11.880;2022-07-29T13:19:31;2.30;;;2.10;;
1382;SDS011;685;47.196;11.880;2022-07-29T13:22:00;2.47;;;2.27;;
1382;SDS011;685;47.196;11.880;2022-07-29T13:24:27;3.10;;;2.80;;
1382;SDS011;685;47.196;11.880;2022-07-29T13:26:54;2.67;;;2.30;;
1382;SDS011;685;47.196;11.880;2022-07-29T13:29:22;2.93;;;2.47;;
1382;SDS011;685;47.196;11.880;2022-07-29T13:31:51;4.43;;;2.30;;
1382;SDS011;685;47.196;11.880;2022-07-29T13:34:18;3.13;;;2.50;;
1382;SDS011;685;47.196;11.880;2022-07-29T13:36:47;3.20;;;1.93;;
1382;SDS011;685;47.196;11.880;2022-07-29T13:39:14;2.80;;;2.47;;
1382;SDS011;685;47.196;11.880;2022-07-29T13:41:41;2.53;;;2.33;;
1382;SDS011;685;47.196;11.880;2022-07-29T13:44:08;2.60;;;2.17;;
1382;SDS011;685;47.196;11.880;2022-07-29T13:46:36;5.27;;;2.50;;
1382;SDS011;685;47.196;11.880;2022-07-29T13:49:03;2.27;;;1.90;;
1382;SDS011;685;47.196;11.880;2022-07-29T13:51:30;3.90;;;2.40;;
1382;SDS011;685;47.196;11.880;2022-07-29T13:53:57;2.63;;;2.37;;
1382;SDS011;685;47.196;11.880;2022-07-29T13:56:24;2.57;;;1.97;;
1382;SDS011;685;47.196;11.880;2022-07-29T13:58:51;2.80;;;2.50;;
1382;SDS011;685;47.196;11.880;2022-07-29T14:01:18;3.03;;;2.17;;
1382;SDS011;685;47.196;11.880;2022-07-29T14:03:46;2.93;;;1.97;;
1382;SDS011;685;47.196;11.880;2022-07-29T14:06:13;2.63;;;2.10;;
1382;SDS011;685;47.196;11.880;2022-07-29T14:08:40;4.67;;;4.17;;
1382;SDS011;685;47.196;11.880;2022-07-29T14:11:07;2.77;;;2.40;;
1382;SDS011;685;47.196;11.880;2022-07-29T14:13:34;2.53;;;2.33;;
1382;SDS011;685;47.196;11.880;2022-07-29T14:16:01;2.70;;;2.17;;
1382;SDS011;685;47.196;11.880;2022-07-29T14:18:29;3.20;;;2.40;;
1382;SDS011;685;47.196;11.880;2022-07-29T14:20:57;2.57;;;2.23;;
1382;SDS011;685;47.196;11.880;2022-07-29T14:23:24;3.07;;;2.50;;
1382;SDS011;685;47.196;11.880;2022-07-29T14:25:52;3.87;;;2.40;;
1382;SDS011;685;47.196;11.880;2022-07-29T14:28:19;3.03;;;2.67;;
1382;SDS011;685;47.196;11.880;2022-07-29T14:30:46;2.83;;;2.57;;
1382;SDS011;685;47.196;11.880;2022-07-29T14:33:13;3.80;;;2.90;;
1382;SDS011;685;47.196;11.880;2022-07-29T14:35:40;7.73;;;2.70;;
1382;SDS011;685;47.196;11.880;2022-07-29T14:38:08;3.50;;;2.40;;
1382;SDS011;685;47.196;11.880;2022-07-29T14:40:35;2.80;;;2.60;;
1382;SDS011;685;47.196;11.880;2022-07-29T14:43:03;3.63;;;3.10;;
1382;SDS011;685;47.196;11.880;2022-07-29T14:45:30;2.80;;;2.50;;
1382;SDS011;685;47.196;11.880;2022-07-29T14:47:57;6.17;;;3.47;;
1382;SDS011;685;47.196;11.880;2022-07-29T14:50:24;4.10;;;2.77;;
1382;SDS011;685;47.196;11.880;2022-07-29T14:52:52;3.90;;;2.63;;
1382;SDS011;685;47.196;11.880;2022-07-29T14:55:21;2.90;;;2.23;;
1382;SDS011;685;47.196;11.880;2022-07-29T14:57:48;3.40;;;2.93;;
1382;SDS011;685;47.196;11.880;2022-07-29T15:00:16;3.93;;;2.50;;
1382;SDS011;685;47.196;11.880;2022-07-29T15:02:43;5.03;;;2.70;;
1382;SDS011;685;47.196;11.880;2022-07-29T15:05:10;4.87;;;2.73;;
1382;SDS011;685;47.196;11.880;2022-07-29T15:07:37;3.87;;;2.90;;
1382;SDS011;685;47.196;11.880;2022-07-29T15:10:05;2.60;;;2.33;;
1382;SDS011;685;47.196;11.880;2022-07-29T15:12:34;3.93;;;2.77;;
1382;SDS011;685;47.196;11.880;2022-07-29T15:15:01;3.40;;;2.53;;
1382;SDS011;685;47.196;11.880;2022-07-29T15:17:28;3.43;;;2.63;;
1382;SDS011;685;47.196;11.880;2022-07-29T15:19:55;4.70;;;3.00;;
1382;SDS011;685;47.196;11.880;2022-07-29T15:22:22;3.90;;;2.30;;
1382;SDS011;685;47.196;11.880;2022-07-29T15:24:49;5.13;;;2.77;;
1382;SDS011;685;47.196;11.880;2022-07-29T15:27:16;3.60;;;2.50;;
1382;SDS011;685;47.196;11.880;2022-07-29T15:29:44;3.83;;;2.80;;
1382;SDS011;685;47.196;11.880;2022-07-29T15:32:11;3.80;;;2.70;;
1382;SDS011;685;47.196;11.880;2022-07-29T15:34:39;3.20;;;2.83;;
1382;SDS011;685;47.196;11.880;2022-07-29T15:37:06;3.50;;;3.20;;
1382;SDS011;685;47.196;11.880;2022-07-29T15:39:33;3.77;;;2.87;;
1382;SDS011;685;47.196;11.880;2022-07-29T15:44:27;2.80;;;2.50;;
1382;SDS011;685;47.196;11.880;2022-07-29T15:46:56;5.40;;;2.83;;
1382;SDS011;685;47.196;11.880;2022-07-29T15:49:30;5.00;;;3.40;;
1382;SDS011;685;47.196;11.880;2022-07-29T15:51:57;3.50;;;2.93;;